Time;durP1;ratioP1;P1;durP2;ratioP2;P2;SDS_P1;SDS_P2;PMS_P1;PMS_P2;Temp;Humidity;BMP_temperature;BMP_pressure;BME280_temperature;BME280_humidity;BME280_pressure;Samples;Min_cycle;Max_cycle;Signal;HPM_P1;HPM_P2
2022/12/01 00:01:11;;;;;;;8.02;5.93;;;2.60;99.90;;;;;;5056454;28;20136;-65
2022/12/01 00:03:38;;;;;;;6.03;4.80;;;2.60;99.90;;;;;;5055994;28;20099;-67
2022/12/01 00:06:16;;;;;;;10.63;5.88;;;2.60;99.90;;;;;;5053771;28;20045;-64
2022/12/01 00:11:34;;;;;;;6.03;4.88;;;2.50;99.90;;;;;;5062596;28;20532;-65
2022/12/01 00:14:01;;;;;;;7.22;5.65;;;2.60;99.90;;;;;;5055798;28;20063;-65
2022/12/01 00:16:29;;;;;;;8.00;5.35;;;2.60;99.90;;;;;;5058767;28;20093;-64
2022/12/01 00:18:57;;;;;;;6.20;5.10;;;2.50;99.90;;;;;;5059118;28;20105;-64
2022/12/01 00:21:25;;;;;;;7.47;5.60;;;2.60;99.90;;;;;;5053395;28;20421;-65
2022/12/01 00:23:54;;;;;;;8.15;5.72;;;2.60;99.90;;;;;;5056685;28;20235;-65
2022/12/01 00:26:21;;;;;;;9.32;6.60;;;2.60;99.90;;;;;;5057216;28;20194;-64
2022/12/01 00:28:54;;;;;;;8.45;5.10;;;2.60;99.90;;;;;;5058403;28;20055;-63
2022/12/01 00:31:22;;;;;;;6.70;5.10;;;2.50;99.90;;;;;;5057338;28;20053;-63
2022/12/01 00:33:49;;;;;;;8.48;5.90;;;2.50;99.90;;;;;;5061711;28;20435;-64
2022/12/01 00:36:16;;;;;;;6.35;5.40;;;2.50;99.90;;;;;;5053835;28;20048;-63
2022/12/01 00:38:43;;;;;;;8.27;5.72;;;2.50;99.90;;;;;;5061734;28;20101;-63
2022/12/01 00:41:10;;;;;;;8.68;5.47;;;2.50;99.90;;;;;;5059413;28;20071;-64
2022/12/01 00:43:38;;;;;;;8.10;5.72;;;2.50;99.90;;;;;;5054589;28;20140;-65
2022/12/01 00:46:06;;;;;;;7.95;5.72;;;2.50;99.90;;;;;;5054584;28;20455;-64
2022/12/01 00:48:33;;;;;;;9.63;6.45;;;2.50;99.90;;;;;;5053562;28;20161;-64
2022/12/01 00:51:00;;;;;;;11.38;7.47;;;2.50;99.90;;;;;;5059537;28;20041;-63
2022/12/01 00:53:27;;;;;;;8.63;6.18;;;2.50;99.90;;;;;;5060858;28;20052;-63
2022/12/01 00:55:54;;;;;;;11.77;7.15;;;2.50;99.90;;;;;;5059549;28;20048;-64
2022/12/01 00:58:22;;;;;;;13.00;8.38;;;2.50;99.90;;;;;;5059690;28;20050;-64
2022/12/01 01:00:56;;;;;;;12.77;8.73;;;2.60;99.90;;;;;;5053089;28;20036;-64
2022/12/01 01:03:24;;;;;;;10.55;7.95;;;2.60;99.90;;;;;;5059303;28;20473;-64
2022/12/01 01:05:51;;;;;;;12.27;7.72;;;2.60;99.90;;;;;;5062564;28;20466;-64
2022/12/01 01:08:18;;;;;;;12.00;8.02;;;2.60;99.90;;;;;;5059129;28;20156;-66
2022/12/01 01:10:47;;;;;;;11.10;8.77;;;2.60;99.90;;;;;;5058864;28;20619;-64
2022/12/01 01:13:14;;;;;;;12.40;8.80;;;2.60;99.90;;;;;;5064073;28;20059;-64
2022/12/01 01:15:41;;;;;;;18.67;9.68;;;2.60;99.90;;;;;;5057394;28;20472;-66
2022/12/01 01:18:11;;;;;;;14.20;9.88;;;2.60;99.90;;;;;;5064195;28;20048;-64
2022/12/01 01:20:38;;;;;;;14.80;9.47;;;2.70;99.90;;;;;;5055004;28;20076;-64
2022/12/01 01:23:05;;;;;;;13.20;9.52;;;2.70;99.90;;;;;;5062864;28;20091;-65
2022/12/01 01:25:32;;;;;;;13.98;10.88;;;2.70;99.90;;;;;;5063645;28;20050;-63
2022/12/01 01:27:59;;;;;;;13.43;9.23;;;2.70;99.90;;;;;;5064370;28;20048;-63
2022/12/01 01:30:26;;;;;;;14.88;9.82;;;2.70;99.90;;;;;;5061138;28;20072;-63
2022/12/01 01:32:54;;;;;;;14.93;10.00;;;2.80;99.90;;;;;;5064766;28;20037;-63
2022/12/01 01:35:21;;;;;;;14.35;10.07;;;2.80;99.90;;;;;;5061111;28;20881;-64
2022/12/01 01:37:49;;;;;;;14.82;9.50;;;2.80;99.90;;;;;;5058783;28;20832;-63
2022/12/01 01:40:17;;;;;;;14.25;9.13;;;2.80;99.90;;;;;;5063065;28;20053;-65
2022/12/01 01:42:44;;;;;;;12.73;9.10;;;2.70;99.90;;;;;;5054932;28;20060;-65
2022/12/01 01:45:23;;;;;;;14.75;9.73;;;2.70;99.90;;;;;;5059937;28;20426;-63
2022/12/01 01:47:52;;;;;;;14.65;8.93;;;2.70;99.90;;;;;;5062814;28;20390;-64
2022/12/01 01:50:23;;;;;;;11.65;8.10;;;2.70;99.90;;;;;;5059382;28;20576;-65
2022/12/01 01:53:03;;;;;;;11.50;8.30;;;2.70;99.90;;;;;;5059476;28;20040;-64
2022/12/01 01:55:33;;;;;;;10.38;7.43;;;2.70;99.90;;;;;;5062099;28;20048;-65
2022/12/01 01:58:03;;;;;;;10.95;7.70;;;2.80;99.90;;;;;;5054248;28;20494;-64
2022/12/01 02:00:30;;;;;;;8.95;6.80;;;2.70;99.90;;;;;;5060473;28;20048;-65
2022/12/01 02:02:58;;;;;;;9.00;6.57;;;2.80;99.90;;;;;;5058228;28;20156;-65
2022/12/01 02:05:31;;;;;;;10.48;6.68;;;2.80;99.90;;;;;;5050354;28;20368;-63
2022/12/01 02:07:59;;;;;;;9.82;7.43;;;2.70;99.90;;;;;;5061151;28;20080;-65
2022/12/01 02:10:46;;;;;;;8.75;7.10;;;2.80;99.90;;;;;;5056963;28;20044;-64
2022/12/01 02:13:45;;;;;;;10.80;7.40;;;2.80;99.90;;;;;;5059390;28;20072;-63
2022/12/01 02:16:30;;;;;;;10.68;7.80;;;2.80;99.90;;;;;;5056742;28;20551;-64
2022/12/01 02:19:08;;;;;;;8.82;6.68;;;2.80;99.90;;;;;;5056347;28;20106;-66
2022/12/01 02:22:02;;;;;;;12.10;8.45;;;2.80;99.90;;;;;;5061791;28;20046;-64
2022/12/01 02:24:50;;;;;;;10.38;8.48;;;2.80;99.90;;;;;;5060694;28;20067;-65
2022/12/01 02:27:26;;;;;;;9.90;7.85;;;2.80;99.90;;;;;;5060461;28;20130;-65
2022/12/01 02:30:05;;;;;;;13.20;8.02;;;2.80;99.90;;;;;;5060518;28;20521;-66
2022/12/01 02:33:05;;;;;;;11.85;8.27;;;2.80;99.90;;;;;;5062078;28;20517;-64
2022/12/01 02:35:48;;;;;;;14.18;9.48;;;2.80;99.90;;;;;;5058251;28;20459;-66
2022/12/01 02:38:34;;;;;;;11.45;8.35;;;2.80;99.90;;;;;;5070153;28;20750;-65
2022/12/01 02:41:18;;;;;;;12.82;8.40;;;2.80;99.90;;;;;;5060144;28;20160;-66
2022/12/01 02:44:00;;;;;;;10.75;8.05;;;2.80;99.90;;;;;;5060031;28;20087;-64
2022/12/01 02:46:34;;;;;;;8.70;6.82;;;2.80;99.90;;;;;;5056081;28;20521;-64
2022/12/01 02:49:09;;;;;;;9.98;7.00;;;2.80;99.90;;;;;;5057311;28;20070;-65
2022/12/01 02:51:38;;;;;;;9.82;7.45;;;2.80;99.90;;;;;;5063605;28;20653;-64
2022/12/01 02:54:06;;;;;;;9.45;7.88;;;2.80;99.90;;;;;;5061010;28;20087;-64
2022/12/01 02:56:33;;;;;;;7.90;6.70;;;2.80;99.90;;;;;;5057205;28;20072;-64
2022/12/01 02:59:00;;;;;;;11.82;7.57;;;2.80;99.90;;;;;;5054314;28;20159;-63
2022/12/01 03:01:45;;;;;;;9.85;7.10;;;2.90;99.90;;;;;;5065468;28;20135;-63
2022/12/01 03:04:31;;;;;;;11.55;7.95;;;2.80;99.90;;;;;;5059549;28;20088;-65
2022/12/01 03:07:34;;;;;;;10.80;9.30;;;2.80;99.90;;;;;;5055792;28;20044;-64
2022/12/01 03:10:23;;;;;;;11.65;6.97;;;2.80;99.90;;;;;;5053016;28;20040;-63
2022/12/01 03:13:20;;;;;;;11.50;8.27;;;2.80;99.90;;;;;;5056213;28;20313;-63
2022/12/01 03:16:02;;;;;;;13.10;9.18;;;2.80;99.90;;;;;;5068532;28;20158;-63
2022/12/01 03:18:41;;;;;;;12.40;8.60;;;2.90;99.90;;;;;;5057210;28;20057;-63
2022/12/01 03:21:15;;;;;;;12.93;10.00;;;2.80;99.90;;;;;;5057378;28;20068;-64
2022/12/01 03:23:46;;;;;;;11.32;7.82;;;2.80;99.90;;;;;;5059817;28;20055;-65
2022/12/01 03:26:18;;;;;;;13.15;8.88;;;2.80;99.90;;;;;;5059814;28;20078;-64
2022/12/01 03:28:50;;;;;;;14.02;9.85;;;2.80;99.90;;;;;;5058569;28;20099;-64
2022/12/01 03:31:21;;;;;;;14.00;10.38;;;2.80;99.90;;;;;;5059423;28;20413;-65
2022/12/01 03:34:01;;;;;;;14.90;10.45;;;2.80;99.90;;;;;;5056500;28;20052;-66
2022/12/01 03:36:51;;;;;;;13.15;10.13;;;2.90;99.90;;;;;;5052583;28;20041;-66
2022/12/01 03:39:22;;;;;;;;;;;2.90;99.90;;;;;;5056335;28;20136;-63
2022/12/01 03:41:55;;;;;;;15.80;10.07;;;2.90;99.90;;;;;;5059065;28;19930;-64
2022/12/01 03:44:35;;;;;;;15.45;10.38;;;2.90;99.90;;;;;;5057949;28;20048;-64
2022/12/01 03:47:29;;;;;;;15.02;11.23;;;2.90;99.90;;;;;;5060920;28;20044;-64
2022/12/01 03:49:58;;;;;;;16.50;11.93;;;2.90;99.90;;;;;;5060415;28;20337;-65
2022/12/01 03:53:00;;;;;;;18.85;11.98;;;2.90;99.90;;;;;;5053096;28;20053;-66
2022/12/01 03:55:32;;;;;;;18.30;13.27;;;2.90;99.90;;;;;;5056886;28;20163;-65
2022/12/01 03:58:19;;;;;;;15.15;11.95;;;2.90;99.90;;;;;;5058409;28;20140;-64
2022/12/01 04:00:52;;;;;;;15.15;10.60;;;2.90;99.90;;;;;;5057974;28;20051;-63
2022/12/01 04:03:24;;;;;;;15.27;12.38;;;2.90;99.90;;;;;;5058677;28;20040;-64
2022/12/01 04:05:51;;;;;;;16.83;11.68;;;2.90;99.90;;;;;;5063941;28;20158;-64
2022/12/01 04:08:18;;;;;;;16.20;10.73;;;2.90;99.90;;;;;;5058724;28;20513;-65
2022/12/01 04:10:45;;;;;;;14.32;10.70;;;3.00;99.90;;;;;;5056562;28;20430;-63
2022/12/01 04:13:21;;;;;;;14.65;11.52;;;3.00;99.90;;;;;;5056040;28;20049;-64
2022/12/01 04:15:49;;;;;;;18.83;12.10;;;3.00;99.90;;;;;;5058849;28;20037;-63
2022/12/01 04:18:17;;;;;;;17.25;11.25;;;3.00;99.90;;;;;;5052323;28;20748;-65
2022/12/01 04:20:48;;;;;;;15.07;11.23;;;3.00;99.90;;;;;;5050099;28;20057;-65
2022/12/01 04:23:58;;;;;;;;;;;3.00;99.90;;;;;;5057548;28;20107;-63
2022/12/01 04:26:03;;;;;;;15.48;9.95;;;3.00;99.90;;;;;;5062968;27;19998;-65
2022/12/01 04:28:30;;;;;;;14.35;9.82;;;3.00;99.90;;;;;;5059347;28;20041;-63
2022/12/01 04:30:57;;;;;;;14.85;9.40;;;3.00;99.90;;;;;;5057625;28;20052;-64
2022/12/01 04:33:24;;;;;;;14.25;9.68;;;3.00;99.90;;;;;;5056666;28;20053;-64
2022/12/01 04:35:58;;;;;;;16.10;11.60;;;3.00;99.90;;;;;;5057819;28;20076;-64
2022/12/01 04:38:26;;;;;;;14.27;11.55;;;3.00;99.90;;;;;;5062624;28;20048;-65
2022/12/01 04:40:57;;;;;;;17.35;12.15;;;3.00;99.90;;;;;;5060231;28;20120;-63
2022/12/01 04:43:24;;;;;;;17.02;10.48;;;3.10;99.90;;;;;;5063792;28;20144;-64
2022/12/01 04:45:50;;;;;;;13.23;9.88;;;3.10;99.90;;;;;;5062635;28;20048;-64
2022/12/01 04:48:17;;;;;;;14.57;9.27;;;3.10;99.90;;;;;;5063967;28;20135;-64
2022/12/01 04:50:47;;;;;;;13.63;9.73;;;3.10;99.90;;;;;;5060481;28;20053;-64
2022/12/01 04:53:14;;;;;;;15.53;10.13;;;3.10;99.90;;;;;;5063805;28;20048;-65
2022/12/01 04:55:41;;;;;;;13.88;9.38;;;3.10;99.90;;;;;;5060125;28;20052;-68
2022/12/01 04:58:07;;;;;;;13.98;11.20;;;3.10;99.90;;;;;;5060348;28;20139;-65
2022/12/01 05:00:36;;;;;;;13.90;8.88;;;3.10;99.90;;;;;;5059433;28;20057;-65
2022/12/01 05:03:03;;;;;;;15.32;10.50;;;3.10;99.90;;;;;;5062249;28;20040;-64
2022/12/01 05:05:30;;;;;;;14.30;10.55;;;3.10;99.90;;;;;;5059241;28;20072;-64
2022/12/01 05:07:58;;;;;;;15.68;10.23;;;3.20;99.90;;;;;;5061358;28;20048;-64
2022/12/01 05:10:25;;;;;;;13.15;9.73;;;3.20;99.90;;;;;;5061549;28;20136;-65
2022/12/01 05:12:52;;;;;;;15.23;10.55;;;3.20;99.90;;;;;;5062736;28;20045;-64
2022/12/01 05:15:19;;;;;;;17.70;11.85;;;3.20;99.90;;;;;;5058296;28;20041;-66
2022/12/01 05:17:46;;;;;;;14.90;10.65;;;3.20;99.90;;;;;;5058722;28;20136;-63
2022/12/01 05:23:04;;;;;;;12.30;8.63;;;3.20;99.90;;;;;;5059903;28;20133;-64
2022/12/01 05:25:33;;;;;;;12.48;9.32;;;3.20;99.90;;;;;;5054503;28;20125;-64
2022/12/01 05:28:00;;;;;;;15.20;9.73;;;3.20;99.90;;;;;;5064613;28;20044;-64
2022/12/01 05:30:26;;;;;;;14.23;9.60;;;3.20;99.90;;;;;;5060224;28;20504;-63
2022/12/01 05:32:54;;;;;;;14.05;9.27;;;3.20;99.90;;;;;;5057931;28;20421;-65
2022/12/01 05:35:21;;;;;;;15.45;11.50;;;3.20;99.90;;;;;;5059192;28;20160;-65
2022/12/01 05:37:48;;;;;;;12.50;10.27;;;3.20;99.90;;;;;;5066357;28;20172;-63
2022/12/01 05:40:15;;;;;;;16.88;11.30;;;3.20;99.90;;;;;;5055962;28;20151;-63
2022/12/01 05:42:42;;;;;;;15.65;10.93;;;3.20;99.90;;;;;;5059680;28;20051;-66
2022/12/01 05:45:09;;;;;;;13.75;9.85;;;3.20;99.90;;;;;;5062767;28;20143;-63
2022/12/01 05:47:36;;;;;;;12.95;9.52;;;3.30;99.90;;;;;;5056126;28;20077;-64
2022/12/01 05:50:04;;;;;;;13.43;10.32;;;3.30;99.90;;;;;;5061766;28;20419;-64
2022/12/01 05:52:35;;;;;;;13.13;9.55;;;3.30;99.90;;;;;;5053055;28;20048;-64
2022/12/01 05:55:06;;;;;;;15.15;9.75;;;3.30;99.90;;;;;;5054402;28;20049;-66
2022/12/01 05:57:33;;;;;;;14.43;10.70;;;3.20;99.90;;;;;;5058743;28;20516;-64
2022/12/01 06:00:00;;;;;;;12.48;9.38;;;3.30;99.90;;;;;;5060047;28;20066;-65
2022/12/01 06:02:37;;;;;;;15.18;11.63;;;3.30;99.90;;;;;;5059034;28;20054;-66
2022/12/01 06:05:05;;;;;;;18.60;9.75;;;3.30;99.90;;;;;;5057225;28;20130;-64
2022/12/01 06:07:34;;;;;;;13.82;10.52;;;3.30;99.90;;;;;;5053802;28;20083;-64
2022/12/01 06:10:02;;;;;;;13.38;10.00;;;3.30;99.90;;;;;;5056128;28;20458;-65
2022/12/01 06:12:29;;;;;;;17.27;11.88;;;3.30;99.90;;;;;;5052798;28;20112;-64
2022/12/01 06:14:56;;;;;;;14.23;11.32;;;3.30;99.90;;;;;;5053642;28;20044;-64
2022/12/01 06:17:23;;;;;;;17.42;10.93;;;3.30;99.90;;;;;;5057883;28;20131;-65
2022/12/01 06:19:50;;;;;;;14.10;11.80;;;3.30;99.90;;;;;;5057325;28;20139;-65
2022/12/01 06:22:17;;;;;;;15.20;11.57;;;3.40;99.90;;;;;;5058530;28;20467;-65
2022/12/01 06:24:44;;;;;;;16.45;10.40;;;3.40;99.90;;;;;;5054050;28;20555;-66
2022/12/01 06:27:11;;;;;;;13.38;9.18;;;3.40;99.90;;;;;;5057792;28;20170;-64
2022/12/01 06:29:38;;;;;;;13.75;10.32;;;3.40;99.90;;;;;;5061242;28;20053;-65
2022/12/01 06:32:08;;;;;;;13.40;9.77;;;3.40;99.90;;;;;;5058457;28;20101;-65
2022/12/01 06:34:35;;;;;;;17.02;11.75;;;3.40;99.90;;;;;;5060297;28;20044;-63
2022/12/01 06:37:02;;;;;;;13.18;9.88;;;3.40;99.90;;;;;;5059765;28;20046;-65
2022/12/01 06:39:29;;;;;;;15.48;10.85;;;3.40;99.90;;;;;;5060715;28;21772;-67
2022/12/01 06:41:56;;;;;;;13.32;9.55;;;3.40;99.90;;;;;;5059758;28;20045;-64
2022/12/01 06:44:22;;;;;;;15.45;11.23;;;3.40;99.90;;;;;;5061902;28;20468;-65
2022/12/01 06:46:51;;;;;;;12.55;9.13;;;3.40;99.90;;;;;;5065293;28;20054;-65
2022/12/01 06:49:19;;;;;;;12.85;9.90;;;3.40;99.90;;;;;;5056936;28;20076;-63
2022/12/01 06:51:46;;;;;;;13.25;9.68;;;3.40;99.90;;;;;;5058853;28;20136;-64
2022/12/01 06:54:14;;;;;;;13.05;9.70;;;3.40;99.90;;;;;;5052445;28;20136;-66
2022/12/01 06:56:41;;;;;;;11.35;9.55;;;3.40;99.90;;;;;;5057228;28;20127;-64
2022/12/01 06:59:09;;;;;;;12.65;9.05;;;3.40;99.90;;;;;;5065077;28;20109;-64
2022/12/01 07:01:36;;;;;;;14.35;9.55;;;3.40;99.90;;;;;;5060669;28;20078;-65
2022/12/01 07:04:03;;;;;;;15.85;11.23;;;3.40;99.90;;;;;;5059045;28;20036;-64
2022/12/01 07:06:30;;;;;;;15.73;10.27;;;3.30;99.90;;;;;;5059755;28;20127;-64
2022/12/01 07:08:57;;;;;;;14.23;9.77;;;3.40;99.90;;;;;;5056031;28;20044;-66
2022/12/01 07:11:24;;;;;;;13.20;9.45;;;3.40;99.90;;;;;;5059055;28;20190;-64
2022/12/01 07:13:54;;;;;;;15.68;11.18;;;3.40;99.90;;;;;;5060385;28;20048;-64
2022/12/01 07:16:21;;;;;;;13.82;9.30;;;3.40;99.90;;;;;;5055265;28;20052;-65
2022/12/01 07:18:49;;;;;;;14.52;10.32;;;3.30;99.90;;;;;;5056592;28;20062;-63
2022/12/01 07:21:16;;;;;;;17.17;10.40;;;3.30;99.90;;;;;;5058212;28;20076;-64
2022/12/01 07:23:43;;;;;;;14.63;9.55;;;3.40;99.90;;;;;;5061232;28;20043;-66
2022/12/01 07:26:12;;;;;;;15.88;9.20;;;3.40;99.90;;;;;;5077570;28;20405;-62
2022/12/01 07:28:39;;;;;;;12.63;9.20;;;3.40;99.90;;;;;;5055700;28;20053;-64
2022/12/01 07:31:24;;;;;;;12.18;10.18;;;3.40;99.90;;;;;;5058697;28;20498;-65
2022/12/01 07:33:51;;;;;;;11.65;8.48;;;3.40;99.90;;;;;;5054839;28;20156;-63
2022/12/01 07:36:19;;;;;;;12.13;9.35;;;3.40;99.90;;;;;;5062876;28;20132;-66
2022/12/01 07:38:45;;;;;;;13.20;9.55;;;3.40;99.90;;;;;;5058645;28;20052;-63
2022/12/01 07:41:14;;;;;;;14.63;9.13;;;3.40;99.90;;;;;;5059377;28;20041;-63
2022/12/01 07:43:42;;;;;;;14.15;8.63;;;3.40;99.90;;;;;;5059333;28;20044;-63
2022/12/01 07:46:19;;;;;;;11.98;8.82;;;3.40;99.90;;;;;;5056920;28;20494;-65
2022/12/01 07:48:51;;;;;;;12.98;10.30;;;3.40;99.90;;;;;;5046143;28;20044;-65
2022/12/01 07:51:18;;;;;;;13.23;8.98;;;3.40;99.90;;;;;;5083960;28;20159;-62
2022/12/01 07:53:46;;;;;;;13.50;9.23;;;3.40;99.90;;;;;;5062137;28;20044;-63
2022/12/01 07:56:14;;;;;;;13.40;8.93;;;3.40;99.90;;;;;;5052325;28;20047;-66
2022/12/01 07:58:41;;;;;;;15.68;9.80;;;3.40;99.90;;;;;;5054886;28;20036;-64
2022/12/01 08:01:13;;;;;;;14.18;9.18;;;3.40;99.90;;;;;;5059988;28;20219;-62
2022/12/01 08:03:41;;;;;;;12.40;9.07;;;3.40;99.90;;;;;;5061374;28;20160;-62
2022/12/01 08:06:09;;;;;;;12.40;8.68;;;3.40;99.90;;;;;;5056719;28;20083;-64
2022/12/01 08:08:38;;;;;;;12.35;8.60;;;3.50;99.90;;;;;;5053496;28;20140;-63
2022/12/01 08:11:10;;;;;;;9.30;7.43;;;3.50;99.90;;;;;;5058229;28;20086;-66
2022/12/01 08:13:38;;;;;;;13.07;8.93;;;3.50;99.90;;;;;;5063910;28;20072;-63
2022/12/01 08:16:06;;;;;;;11.20;8.98;;;3.50;99.90;;;;;;5063853;28;20491;-63
2022/12/01 08:18:35;;;;;;;12.65;9.45;;;3.50;99.90;;;;;;5065300;28;20040;-64
2022/12/01 08:21:03;;;;;;;12.98;8.80;;;3.50;99.90;;;;;;5063147;28;20548;-63
2022/12/01 08:23:30;;;;;;;12.65;8.80;;;3.50;99.90;;;;;;5061428;28;20090;-65
2022/12/01 08:26:05;;;;;;;13.70;9.57;;;3.50;99.90;;;;;;5062053;28;20506;-63
2022/12/01 08:28:35;;;;;;;11.05;7.53;;;3.50;99.90;;;;;;5062941;28;20443;-63
2022/12/01 08:31:13;;;;;;;17.10;9.07;;;3.50;99.90;;;;;;5062830;28;20040;-64
2022/12/01 08:33:40;;;;;;;12.60;8.05;;;3.50;99.90;;;;;;5061601;28;20862;-64
2022/12/01 08:36:08;;;;;;;15.57;9.38;;;3.50;99.90;;;;;;5061903;28;20461;-63
2022/12/01 08:38:35;;;;;;;12.50;8.88;;;3.50;99.90;;;;;;5061709;28;20036;-63
2022/12/01 08:41:04;;;;;;;10.93;7.50;;;3.60;99.90;;;;;;5062542;28;20485;-64
2022/12/01 08:43:31;;;;;;;13.45;9.35;;;3.60;99.90;;;;;;5060509;28;20487;-64
2022/12/01 08:46:18;;;;;;;12.90;10.18;;;3.60;99.90;;;;;;5065687;28;20135;-63
2022/12/01 08:48:45;;;;;;;13.23;9.25;;;3.60;99.90;;;;;;5060932;28;20458;-62
2022/12/01 08:51:14;;;;;;;10.68;7.75;;;3.60;99.90;;;;;;5055352;28;20228;-66
2022/12/01 08:53:46;;;;;;;13.15;9.65;;;3.60;99.90;;;;;;5060636;28;20052;-65
2022/12/01 08:56:23;;;;;;;12.20;7.85;;;3.70;99.90;;;;;;5058548;28;20094;-65
2022/12/01 08:58:50;;;;;;;12.52;8.07;;;3.60;99.90;;;;;;5060127;28;20073;-65
2022/12/01 09:01:18;;;;;;;10.38;7.80;;;3.70;99.90;;;;;;5064956;28;20138;-63
2022/12/01 09:03:46;;;;;;;11.48;8.10;;;3.70;99.90;;;;;;5058310;28;20041;-66
2022/12/01 09:06:16;;;;;;;15.15;9.43;;;3.70;99.90;;;;;;5061082;28;20052;-63
2022/12/01 09:08:43;;;;;;;10.85;8.60;;;3.70;99.90;;;;;;5057768;28;20155;-64
2022/12/01 09:11:13;;;;;;;12.07;9.98;;;3.70;99.90;;;;;;5060803;28;20155;-63
2022/12/01 09:13:42;;;;;;;14.63;9.88;;;3.70;99.90;;;;;;5059673;28;21050;-64
2022/12/01 09:16:16;;;;;;;13.90;8.70;;;3.80;99.90;;;;;;5062871;28;20051;-63
2022/12/01 09:18:45;;;;;;;9.68;7.75;;;3.80;99.90;;;;;;5060355;28;20032;-68
2022/12/01 09:21:20;;;;;;;15.38;10.30;;;3.80;99.90;;;;;;5059529;28;20120;-63
2022/12/01 09:23:48;;;;;;;14.02;9.13;;;3.80;99.90;;;;;;5064096;28;21791;-62
2022/12/01 09:26:17;;;;;;;12.18;8.63;;;3.80;99.90;;;;;;5061598;28;20863;-62
2022/12/01 09:28:55;;;;;;;12.77;9.32;;;3.80;99.90;;;;;;5060549;28;20052;-63
2022/12/01 09:31:23;;;;;;;15.77;10.30;;;3.80;99.90;;;;;;5063228;28;20815;-63
2022/12/01 09:33:58;;;;;;;14.23;9.43;;;3.90;99.90;;;;;;5061412;28;20051;-65
2022/12/01 09:36:25;;;;;;;13.13;8.68;;;3.90;99.90;;;;;;5049781;28;20434;-64
2022/12/01 09:38:52;;;;;;;9.82;7.85;;;3.90;99.90;;;;;;5066128;28;20048;-63
2022/12/01 09:41:36;;;;;;;14.57;10.20;;;3.90;99.90;;;;;;5060294;28;20573;-64
2022/12/01 09:44:12;;;;;;;13.23;9.50;;;3.90;99.90;;;;;;5054847;28;20047;-64
2022/12/01 09:46:48;;;;;;;11.77;8.70;;;3.90;99.90;;;;;;5060866;28;20110;-63
2022/12/01 09:49:23;;;;;;;10.30;8.43;;;4.00;99.90;;;;;;5062765;28;20060;-63
2022/12/01 09:51:53;;;;;;;11.90;8.80;;;4.00;99.90;;;;;;5060611;28;20045;-64
2022/12/01 09:54:20;;;;;;;13.45;8.32;;;4.00;99.90;;;;;;5056012;28;20567;-63
2022/12/01 09:56:51;;;;;;;14.88;9.52;;;4.10;99.90;;;;;;5059287;28;20086;-64
2022/12/01 09:59:30;;;;;;;12.55;9.07;;;4.10;99.90;;;;;;5061674;28;20114;-63
2022/12/01 10:02:02;;;;;;;12.05;9.07;;;4.10;99.90;;;;;;5061679;28;20484;-62
2022/12/01 10:04:38;;;;;;;11.93;9.10;;;4.10;99.90;;;;;;5062752;28;20057;-65
2022/12/01 10:07:13;;;;;;;10.75;8.38;;;4.10;99.90;;;;;;5056577;28;20040;-63
2022/12/01 10:09:56;;;;;;;11.70;9.30;;;4.10;99.90;;;;;;5061381;28;20048;-65
2022/12/01 10:12:26;;;;;;;12.57;9.60;;;4.10;99.90;;;;;;5058697;28;20193;-64
2022/12/01 10:15:17;;;;;;;13.27;8.90;;;4.10;99.90;;;;;;5061878;28;20049;-64
2022/12/01 10:18:02;;;;;;;;;;;4.10;99.90;;;;;;5059750;28;20186;-63
2022/12/01 10:20:55;;;;;;;10.35;8.93;;;4.00;99.90;;;;;;5059485;28;19924;-63
2022/12/01 10:23:48;;;;;;;12.20;7.68;;;4.10;99.90;;;;;;5058218;28;20052;-69
2022/12/01 10:26:40;;;;;;;10.23;7.97;;;4.10;99.90;;;;;;5060852;28;20053;-63
2022/12/01 10:29:27;;;;;;;11.77;8.27;;;4.10;99.90;;;;;;5053043;28;20056;-63
2022/12/01 10:32:03;;;;;;;10.98;7.43;;;4.10;99.90;;;;;;5062666;28;20045;-65
2022/12/01 10:34:36;;;;;;;10.20;8.70;;;4.10;99.90;;;;;;5056621;28;20072;-63
2022/12/01 10:37:04;;;;;;;18.98;8.43;;;4.10;99.90;;;;;;5062527;28;20045;-63
2022/12/01 10:39:42;;;;;;;10.05;7.95;;;4.10;99.90;;;;;;5054809;28;20401;-63
2022/12/01 10:42:21;;;;;;;11.02;8.23;;;4.10;99.90;;;;;;5062406;28;20065;-62
2022/12/01 10:44:49;;;;;;;14.07;9.90;;;4.10;99.90;;;;;;5059374;28;20040;-63
2022/12/01 10:47:19;;;;;;;12.30;9.85;;;4.10;99.90;;;;;;5064564;28;20128;-62
2022/12/01 10:49:46;;;;;;;15.35;9.98;;;4.20;99.90;;;;;;5055130;28;20451;-66
2022/12/01 10:52:33;;;;;;;13.93;8.52;;;4.20;99.90;;;;;;5058348;28;20497;-62
2022/12/01 10:55:01;;;;;;;13.32;8.85;;;4.20;99.90;;;;;;5054810;28;20062;-65
2022/12/01 10:57:29;;;;;;;12.43;8.98;;;4.20;99.90;;;;;;5053975;28;20426;-62
2022/12/01 11:00:04;;;;;;;13.63;8.85;;;4.20;99.90;;;;;;5062556;28;20143;-62
2022/12/01 11:02:32;;;;;;;11.52;9.10;;;4.20;99.90;;;;;;5054380;28;20056;-63
2022/12/01 11:05:03;;;;;;;10.02;8.30;;;4.20;99.90;;;;;;5059454;28;20048;-62
2022/12/01 11:07:41;;;;;;;11.57;8.80;;;4.20;99.90;;;;;;5061097;28;20354;-65
2022/12/01 11:10:34;;;;;;;13.23;9.65;;;4.20;99.90;;;;;;5053799;28;20144;-62
2022/12/01 11:13:16;;;;;;;10.02;8.88;;;4.20;99.90;;;;;;5058966;28;20058;-63
2022/12/01 11:15:54;;;;;;;13.43;9.18;;;4.20;99.90;;;;;;5056905;28;20131;-62
2022/12/01 11:18:35;;;;;;;9.13;7.40;;;4.20;99.90;;;;;;5055425;28;20130;-63
2022/12/01 11:21:24;;;;;;;;;;;4.20;99.90;;;;;;5049520;28;20707;-63
2022/12/01 11:23:53;;;;;;;10.55;8.07;;;4.20;99.90;;;;;;5058137;28;19926;-64
2022/12/01 11:26:27;;;;;;;9.60;8.15;;;4.20;99.90;;;;;;5059814;28;20176;-64
2022/12/01 11:28:58;;;;;;;10.43;8.70;;;4.20;99.90;;;;;;5057850;28;20131;-63
2022/12/01 11:31:40;;;;;;;13.45;10.77;;;4.20;99.90;;;;;;5058556;28;20044;-64
2022/12/01 11:34:22;;;;;;;11.10;9.40;;;4.20;99.90;;;;;;5062810;28;20044;-62
2022/12/01 11:36:55;;;;;;;12.18;9.23;;;4.20;99.90;;;;;;5054882;28;20044;-66
2022/12/01 11:39:28;;;;;;;14.40;10.38;;;4.20;99.90;;;;;;5057222;28;20485;-62
2022/12/01 11:42:05;;;;;;;12.07;10.40;;;4.20;99.90;;;;;;5055949;28;20135;-64
2022/12/01 11:44:33;;;;;;;14.20;11.38;;;4.20;99.90;;;;;;5059434;28;20080;-62
2022/12/01 11:47:23;;;;;;;13.00;9.68;;;4.20;99.90;;;;;;5057837;28;20049;-63
2022/12/01 11:49:55;;;;;;;12.43;10.13;;;4.20;99.90;;;;;;5057153;28;20045;-62
2022/12/01 11:52:30;;;;;;;13.88;9.50;;;4.10;99.90;;;;;;5054131;28;20068;-63
2022/12/01 11:55:00;;;;;;;10.27;8.25;;;4.10;99.90;;;;;;5059483;28;20044;-64
2022/12/01 11:57:38;;;;;;;13.88;10.43;;;4.10;99.90;;;;;;5055099;28;20556;-64
2022/12/01 12:00:17;;;;;;;12.60;9.88;;;4.10;99.90;;;;;;5056516;28;20068;-63
2022/12/01 12:02:56;;;;;;;10.95;9.13;;;4.10;99.90;;;;;;5055981;28;20466;-65
2022/12/01 12:05:34;;;;;;;14.55;10.55;;;4.10;99.90;;;;;;5056312;28;20135;-63
2022/12/01 12:08:38;;;;;;;10.90;9.57;;;4.10;99.90;;;;;;5061133;28;20113;-63
2022/12/01 12:11:20;;;;;;;13.48;9.57;;;4.10;99.90;;;;;;5054253;28;20041;-63
2022/12/01 12:14:05;;;;;;;15.40;10.32;;;4.10;99.90;;;;;;5055253;28;20079;-65
2022/12/01 12:17:17;;;;;;;13.25;10.40;;;4.10;99.90;;;;;;5053054;28;20045;-64
2022/12/01 12:20:04;;;;;;;12.13;9.50;;;4.10;99.90;;;;;;5056561;28;20053;-64
2022/12/01 12:22:59;;;;;;;11.43;9.13;;;4.10;99.90;;;;;;5046711;28;20081;-65
2022/12/01 12:25:37;;;;;;;13.25;10.60;;;4.00;99.90;;;;;;5057064;28;20563;-66
2022/12/01 12:28:22;;;;;;;15.13;11.02;;;4.00;99.90;;;;;;5056276;28;20053;-64
2022/12/01 12:31:22;;;;;;;17.48;10.48;;;4.00;99.90;;;;;;5050988;28;20137;-63
2022/12/01 12:34:22;;;;;;;12.10;9.45;;;4.00;99.90;;;;;;5040793;28;20053;-63
2022/12/01 12:37:26;;;;;;;14.65;12.30;;;4.00;99.90;;;;;;5057240;28;20475;-63
2022/12/01 12:40:21;;;;;;;12.05;9.27;;;4.00;99.90;;;;;;5033523;28;20598;-62
2022/12/01 12:43:19;;;;;;;12.65;11.02;;;3.90;99.90;;;;;;5055189;28;20121;-63
2022/12/01 12:46:12;;;;;;;15.50;11.70;;;3.90;99.90;;;;;;5058355;28;20046;-63
2022/12/01 12:49:10;;;;;;;15.32;9.93;;;3.90;99.90;;;;;;5047977;28;20059;-65
2022/12/01 12:52:08;;;;;;;11.50;9.15;;;3.90;99.90;;;;;;5056995;28;20418;-65
2022/12/01 12:54:38;;;;;;;12.50;9.48;;;3.80;99.90;;;;;;5059138;28;20158;-63
2022/12/01 12:57:27;;;;;;;10.00;8.35;;;3.90;99.90;;;;;;5056487;28;20041;-63
2022/12/01 13:00:13;;;;;;;11.57;8.88;;;3.90;99.90;;;;;;5068195;28;20123;-63
2022/12/01 13:02:45;;;;;;;11.05;9.85;;;3.80;99.90;;;;;;5063260;28;20084;-64
2022/12/01 13:05:15;;;;;;;13.45;10.55;;;3.80;99.90;;;;;;5059982;28;20054;-65
2022/12/01 13:08:09;;;;;;;11.40;10.15;;;3.80;99.90;;;;;;5057696;28;20079;-63
2022/12/01 13:10:53;;;;;;;12.48;9.90;;;3.80;99.90;;;;;;5053916;28;20740;-62
2022/12/01 13:13:41;;;;;;;10.27;9.23;;;3.70;99.90;;;;;;5060085;28;20160;-62
2022/12/01 13:16:24;;;;;;;12.73;10.45;;;3.70;99.90;;;;;;5063790;28;20048;-63
2022/12/01 13:19:12;;;;;;;13.73;11.88;;;3.70;99.90;;;;;;5061798;28;20471;-63
2022/12/01 13:21:42;;;;;;;13.80;11.13;;;3.70;99.90;;;;;;5061733;28;20143;-64
2022/12/01 13:24:16;;;;;;;13.85;10.35;;;3.70;99.90;;;;;;5060622;28;20492;-64